createdAt,value
2022-09-02T00:01:29.508Z,2.70
2022-09-02T00:04:00.287Z,3.13
2022-09-02T00:06:29.086Z,2.92
2022-09-02T00:08:57.254Z,4.25
2022-09-02T00:11:29.609Z,3.72
2022-09-02T00:13:58.472Z,3.90
2022-09-02T00:16:27.198Z,3.83
2022-09-02T00:18:56.413Z,2.83
2022-09-02T00:21:25.613Z,3.20
2022-09-02T00:23:54.071Z,4.50
2022-09-02T00:26:22.186Z,3.33
2022-09-02T00:28:55.869Z,3.97
2022-09-02T00:31:25.058Z,3.55
2022-09-02T00:33:53.449Z,2.92
2022-09-02T00:36:21.786Z,3.72
2022-09-02T00:38:50.045Z,3.45
2022-09-02T00:41:21.290Z,3.50
2022-09-02T00:43:52.308Z,4.65
2022-09-02T00:46:23.034Z,3.10
2022-09-02T00:48:56.929Z,3.78
2022-09-02T00:51:25.943Z,4.72
2022-09-02T00:53:54.613Z,4.10
2022-09-02T00:56:26.262Z,3.47
2022-09-02T00:58:56.477Z,5.30
2022-09-02T01:01:25.443Z,4.78
2022-09-02T01:03:54.032Z,5.30
2022-09-02T01:06:25.082Z,4.05
2022-09-02T01:08:57.957Z,6.30
2022-09-02T01:11:32.201Z,3.42
2022-09-02T01:14:01.840Z,3.35
2022-09-02T01:16:35.040Z,4.63
2022-09-02T01:19:07.405Z,3.88
2022-09-02T01:21:35.998Z,3.47
2022-09-02T01:24:06.093Z,5.43
2022-09-02T01:26:33.977Z,6.68
2022-09-02T01:29:01.854Z,3.42
2022-09-02T01:31:29.888Z,5.90
2022-09-02T01:33:58.050Z,3.40
2022-09-02T01:36:26.109Z,3.20
2022-09-02T01:38:53.956Z,3.47
2022-09-02T01:41:23.125Z,4.90
2022-09-02T01:43:50.942Z,3.70
2022-09-02T01:46:19.015Z,3.72
2022-09-02T01:48:46.895Z,3.60
2022-09-02T01:51:18.554Z,3.78
2022-09-02T01:53:47.080Z,2.95
2022-09-02T01:56:15.487Z,4.03
2022-09-02T01:58:44.713Z,4.57
2022-09-02T02:01:12.704Z,3.25
2022-09-02T02:03:40.614Z,5.57
2022-09-02T02:06:12.750Z,3.63
2022-09-02T02:08:40.838Z,5.72
2022-09-02T02:11:09.154Z,4.13
2022-09-02T02:13:38.009Z,3.15
2022-09-02T02:16:07.413Z,3.42
2022-09-02T02:18:35.286Z,4.20
2022-09-02T02:21:03.140Z,3.75
2022-09-02T02:23:31.008Z,3.30
2022-09-02T02:25:58.934Z,3.83
2022-09-02T02:28:26.805Z,3.20
2022-09-02T02:30:54.969Z,3.45
2022-09-02T02:33:30.445Z,4.50
2022-09-02T02:36:05.889Z,3.20
2022-09-02T02:38:33.881Z,4.20
2022-09-02T02:41:03.132Z,4.45
2022-09-02T02:43:30.974Z,4.22
2022-09-02T02:45:58.877Z,3.45
2022-09-02T02:48:28.125Z,4.15
2022-09-02T02:50:56.083Z,4.13
2022-09-02T02:53:24.130Z,3.30
2022-09-02T02:55:51.967Z,3.58
2022-09-02T02:58:20.062Z,5.97
2022-09-02T03:00:47.945Z,4.18
2022-09-02T03:03:19.347Z,3.58
2022-09-02T03:05:49.828Z,3.60
2022-09-02T03:08:20.960Z,4.97
2022-09-02T03:10:50.139Z,4.65
2022-09-02T03:13:17.998Z,4.70
2022-09-02T03:15:46.089Z,3.95
2022-09-02T03:18:14.000Z,4.03
2022-09-02T03:20:42.986Z,3.85
2022-09-02T03:23:13.462Z,3.75
2022-09-02T03:25:43.898Z,3.63
2022-09-02T03:28:12.004Z,3.55
2022-09-02T03:30:42.281Z,5.55
2022-09-02T03:33:10.216Z,5.50
2022-09-02T03:35:41.474Z,4.28
2022-09-02T03:38:10.355Z,3.03
2022-09-02T03:40:40.341Z,3.60
2022-09-02T03:43:08.184Z,3.70
2022-09-02T03:45:36.100Z,5.35
2022-09-02T03:48:04.514Z,5.15
2022-09-02T03:50:35.098Z,6.63
2022-09-02T03:53:03.288Z,7.15
2022-09-02T03:55:31.698Z,4.25
2022-09-02T03:58:02.615Z,4.00
2022-09-02T04:00:33.563Z,5.35
2022-09-02T04:03:02.351Z,4.07
2022-09-02T04:05:30.664Z,4.22
2022-09-02T04:07:59.077Z,4.15
2022-09-02T04:10:27.286Z,5.88
2022-09-02T04:12:55.096Z,4.10
2022-09-02T04:15:25.187Z,4.38
2022-09-02T04:17:52.992Z,4.15
2022-09-02T04:20:20.951Z,4.75
2022-09-02T04:22:48.793Z,5.10
2022-09-02T04:25:16.625Z,4.97
2022-09-02T04:27:44.467Z,4.53
2022-09-02T04:30:16.328Z,4.13
2022-09-02T04:32:46.082Z,3.80
2022-09-02T04:35:16.903Z,9.30
2022-09-02T04:37:47.162Z,7.57
2022-09-02T04:40:15.046Z,5.95
2022-09-02T04:42:42.915Z,7.68
2022-09-02T04:45:11.750Z,5.43
2022-09-02T04:47:39.849Z,6.53
2022-09-02T04:50:09.471Z,4.20
2022-09-02T04:52:37.326Z,6.10
2022-09-02T04:55:07.090Z,4.97
2022-09-02T04:57:36.305Z,6.32
2022-09-02T05:00:05.545Z,4.70
2022-09-02T05:02:33.463Z,4.55
2022-09-02T05:05:01.324Z,4.97
2022-09-02T05:07:30.966Z,4.82
2022-09-02T05:09:59.692Z,4.97
2022-09-02T05:12:28.080Z,4.63
2022-09-02T05:14:57.048Z,8.40
2022-09-02T05:17:24.914Z,4.50
2022-09-02T05:19:52.727Z,5.75
2022-09-02T05:22:21.163Z,6.65
2022-09-02T05:24:50.293Z,5.50
2022-09-02T05:27:18.219Z,4.78
2022-09-02T05:29:46.110Z,7.78
2022-09-02T05:32:13.920Z,4.05
2022-09-02T05:34:41.924Z,6.25
2022-09-02T05:37:09.796Z,4.45
2022-09-02T05:39:37.639Z,5.45
2022-09-02T05:42:07.157Z,6.55
2022-09-02T05:44:34.996Z,6.60
2022-09-02T05:47:02.905Z,4.07
2022-09-02T05:49:30.742Z,4.88
2022-09-02T05:52:00.342Z,5.47
2022-09-02T05:54:30.265Z,4.43
2022-09-02T05:57:00.230Z,7.75
2022-09-02T05:59:31.056Z,7.85
2022-09-02T06:01:59.738Z,6.28
2022-09-02T06:04:27.629Z,5.45
2022-09-02T06:06:55.523Z,4.10
2022-09-02T06:09:24.924Z,4.40
2022-09-02T06:11:53.036Z,5.50
2022-09-02T06:14:24.966Z,4.38
2022-09-02T06:16:54.936Z,4.72
2022-09-02T06:19:25.187Z,5.70
2022-09-02T06:21:55.959Z,4.82
2022-09-02T06:24:24.518Z,4.20
2022-09-02T06:26:55.577Z,3.63
2022-09-02T06:29:26.115Z,5.57
2022-09-02T06:31:55.957Z,3.90
2022-09-02T06:34:27.208Z,4.40
2022-09-02T06:36:57.025Z,6.00
2022-09-02T06:39:26.116Z,8.50
2022-09-02T06:41:54.070Z,7.57
2022-09-02T06:44:22.620Z,7.40
2022-09-02T06:46:56.694Z,6.57
2022-09-02T06:49:25.854Z,6.38
2022-09-02T06:51:56.763Z,5.68
2022-09-02T06:54:25.736Z,7.18
2022-09-02T06:56:54.008Z,7.20
2022-09-02T06:59:22.990Z,4.22
2022-09-02T07:01:51.053Z,3.40
2022-09-02T07:04:38.382Z,4.10
2022-09-02T07:07:08.197Z,3.30
2022-09-02T07:09:36.009Z,5.72
2022-09-02T07:12:05.662Z,4.63
2022-09-02T07:14:38.113Z,6.43
2022-09-02T07:19:35.174Z,6.15
2022-09-02T07:22:04.268Z,6.10
2022-09-02T07:24:32.301Z,4.05
2022-09-02T07:27:00.127Z,4.50
2022-09-02T07:29:27.917Z,2.58
2022-09-02T07:31:55.772Z,3.58
2022-09-02T07:34:23.996Z,3.70
2022-09-02T07:36:53.182Z,2.40
2022-09-02T07:39:21.238Z,3.30
2022-09-02T07:41:51.387Z,5.68
2022-09-02T07:44:22.309Z,3.80
2022-09-02T07:46:50.397Z,2.85
2022-09-02T07:49:24.053Z,2.05
2022-09-02T07:51:53.539Z,2.83
2022-09-02T07:54:24.894Z,2.35
2022-09-02T07:56:53.264Z,3.97
2022-09-02T07:59:22.205Z,2.80
2022-09-02T08:01:51.381Z,3.45
2022-09-02T08:04:20.054Z,7.13
2022-09-02T08:06:48.218Z,6.78
2022-09-02T08:09:17.413Z,4.70
2022-09-02T08:11:49.245Z,2.25
2022-09-02T08:14:20.228Z,3.53
2022-09-02T08:19:17.838Z,2.72
2022-09-02T08:21:45.755Z,3.78
2022-09-02T08:24:13.561Z,2.63
2022-09-02T08:26:42.748Z,2.97
2022-09-02T08:29:10.995Z,2.28
2022-09-02T08:31:39.395Z,1.70
2022-09-02T08:34:07.357Z,3.42
2022-09-02T08:36:35.210Z,5.63
2022-09-02T08:39:03.742Z,1.95
2022-09-02T08:41:38.353Z,1.90
2022-09-02T08:44:08.508Z,1.83
2022-09-02T08:46:36.773Z,7.95
2022-09-02T08:49:08.206Z,4.38
2022-09-02T08:51:38.647Z,2.30
2022-09-02T08:54:12.594Z,4.22
2022-09-02T08:56:40.810Z,1.67
2022-09-02T08:59:12.992Z,2.72
2022-09-02T09:04:21.607Z,1.27
2022-09-02T09:07:13.850Z,1.60
2022-09-02T09:09:54.662Z,2.97
2022-09-02T09:12:33.094Z,1.77
2022-09-02T09:15:09.979Z,1.40
2022-09-02T09:17:45.149Z,3.65
2022-09-02T09:20:19.721Z,3.10
2022-09-02T09:22:49.868Z,1.60
2022-09-02T09:25:18.938Z,5.32
2022-09-02T09:27:47.065Z,1.48
2022-09-02T09:30:16.224Z,1.30
2022-09-02T09:32:48.030Z,3.90
2022-09-02T09:35:16.550Z,2.05
2022-09-02T09:37:47.951Z,4.85
2022-09-02T09:40:24.966Z,1.85
2022-09-02T09:42:57.027Z,4.47
2022-09-02T09:48:19.597Z,1.40
2022-09-02T09:50:48.640Z,4.75
2022-09-02T09:53:20.064Z,2.75
2022-09-02T09:55:54.185Z,4.05
2022-09-02T09:58:23.844Z,5.25
2022-09-02T10:00:56.319Z,6.38
2022-09-02T10:03:27.281Z,3.92
2022-09-02T10:06:19.245Z,3.38
2022-09-02T10:08:53.943Z,6.18
2022-09-02T10:11:24.719Z,3.20
2022-09-02T10:13:54.181Z,1.75
2022-09-02T10:16:49.799Z,3.42
2022-09-02T10:19:27.921Z,3.17
2022-09-02T10:22:22.846Z,1.10
2022-09-02T10:25:18.609Z,2.50
2022-09-02T10:27:55.817Z,1.23
2022-09-02T10:30:24.820Z,2.42
2022-09-02T10:33:09.626Z,1.60
2022-09-02T10:35:43.470Z,1.98
2022-09-02T10:38:31.440Z,2.13
2022-09-02T10:41:07.549Z,1.45
2022-09-02T10:43:59.379Z,1.75
2022-09-02T10:46:27.483Z,2.72
2022-09-02T10:49:06.149Z,1.70
2022-09-02T10:51:45.697Z,2.85
2022-09-02T10:54:24.276Z,1.27
2022-09-02T10:56:57.064Z,3.10
2022-09-02T10:59:30.349Z,1.17
2022-09-02T11:02:06.036Z,2.47
2022-09-02T11:04:39.068Z,4.78
2022-09-02T11:07:11.324Z,2.25
2022-09-02T11:12:15.833Z,2.83
2022-09-02T11:14:56.224Z,0.98
2022-09-02T11:17:28.876Z,5.10
2022-09-02T11:20:07.831Z,4.25
2022-09-02T11:22:40.934Z,7.25
2022-09-02T11:25:15.528Z,2.67
2022-09-02T11:27:47.818Z,1.88
2022-09-02T11:30:20.908Z,2.05
2022-09-02T11:32:54.616Z,1.83
2022-09-02T11:35:27.828Z,3.15
2022-09-02T11:37:59.780Z,1.58
2022-09-02T11:40:35.004Z,3.10
2022-09-02T11:43:13.709Z,1.55
2022-09-02T11:45:58.350Z,2.38
2022-09-02T11:48:55.263Z,1.65
2022-09-02T11:51:45.652Z,1.48
2022-09-02T11:54:19.354Z,4.70
2022-09-02T11:56:50.185Z,1.25
2022-09-02T11:59:23.595Z,2.47
2022-09-02T12:01:53.853Z,1.92
2022-09-02T12:04:59.403Z,3.50
2022-09-02T12:07:33.864Z,1.33
2022-09-02T12:10:02.713Z,4.75
2022-09-02T12:13:08.371Z,1.25
2022-09-02T12:15:38.448Z,3.13
2022-09-02T12:18:30.231Z,1.73
2022-09-02T12:21:15.976Z,1.17
2022-09-02T12:24:22.445Z,3.40
2022-09-02T12:29:34.776Z,1.80
2022-09-02T12:32:02.887Z,3.65
2022-09-02T12:35:09.048Z,3.17
2022-09-02T12:37:57.197Z,2.78
2022-09-02T12:40:35.011Z,4.63
2022-09-02T12:43:17.442Z,2.10
2022-09-02T12:45:47.026Z,2.83
2022-09-02T12:48:30.298Z,2.40
2022-09-02T12:51:06.649Z,2.20
2022-09-02T12:53:39.198Z,1.98
2022-09-02T12:56:21.241Z,0.93
2022-09-02T12:58:51.675Z,1.98
2022-09-02T13:01:26.462Z,1.63
2022-09-02T13:04:11.698Z,0.98
2022-09-02T13:07:12.222Z,3.30
2022-09-02T13:10:22.293Z,2.42
2022-09-02T13:13:28.083Z,1.20
2022-09-02T13:16:18.677Z,4.63
2022-09-02T13:19:20.224Z,1.52
2022-09-02T13:22:39.077Z,5.93
2022-09-02T13:25:43.437Z,2.70
2022-09-02T13:28:49.859Z,5.75
2022-09-02T13:31:25.539Z,1.42
2022-09-02T13:34:00.249Z,3.13
2022-09-02T13:36:37.011Z,1.05
2022-09-02T13:39:18.487Z,3.33
2022-09-02T13:41:47.406Z,1.20
2022-09-02T13:44:25.465Z,2.17
2022-09-02T13:46:55.156Z,1.30
2022-09-02T13:49:26.959Z,0.82
2022-09-02T13:51:56.013Z,2.50
2022-09-02T13:54:34.084Z,2.38
2022-09-02T13:57:04.663Z,1.30
2022-09-02T13:59:35.887Z,3.20
2022-09-02T14:02:25.859Z,3.50
2022-09-02T14:04:57.856Z,1.92
2022-09-02T14:07:31.957Z,4.10
2022-09-02T14:10:01.805Z,2.70
2022-09-02T14:12:33.608Z,8.80
2022-09-02T14:15:03.548Z,4.32
2022-09-02T14:17:32.302Z,1.90
2022-09-02T14:20:11.738Z,1.85
2022-09-02T14:22:40.111Z,1.35
2022-09-02T14:25:14.438Z,3.60
2022-09-02T14:27:50.005Z,14.10
2022-09-02T14:30:32.112Z,4.30
2022-09-02T14:33:24.228Z,1.30
2022-09-02T14:36:00.400Z,1.83
2022-09-02T14:38:30.419Z,2.85
2022-09-02T14:41:11.769Z,2.97
2022-09-02T14:43:48.598Z,2.55
2022-09-02T14:46:26.866Z,2.97
2022-09-02T14:48:59.461Z,1.58
2022-09-02T14:51:33.361Z,1.25
2022-09-02T14:54:01.202Z,0.82
2022-09-02T14:56:46.261Z,2.13
2022-09-02T14:59:14.222Z,1.40
2022-09-02T15:01:46.997Z,1.10
2022-09-02T15:04:15.593Z,1.65
2022-09-02T15:06:43.997Z,1.65
2022-09-02T15:09:12.039Z,1.52
2022-09-02T15:11:41.394Z,1.90
2022-09-02T15:14:09.189Z,1.77
2022-09-02T15:16:36.992Z,1.65
2022-09-02T15:19:06.134Z,1.35
2022-09-02T15:21:33.983Z,2.30
2022-09-02T15:24:01.768Z,1.25
2022-09-02T15:26:29.613Z,1.63
2022-09-02T15:28:57.969Z,2.03
2022-09-02T15:31:26.548Z,3.55
2022-09-02T15:33:54.522Z,1.92
2022-09-02T15:36:26.108Z,1.13
2022-09-02T15:38:53.975Z,1.42
2022-09-02T15:41:23.415Z,2.20
2022-09-02T15:43:55.014Z,2.47
2022-09-02T15:46:25.414Z,2.63
2022-09-02T15:48:56.758Z,1.85
2022-09-02T15:51:28.207Z,1.58
2022-09-02T15:53:56.734Z,1.83
2022-09-02T15:56:26.093Z,3.58
2022-09-02T15:58:58.880Z,3.30
2022-09-02T16:01:27.920Z,1.15
2022-09-02T16:03:57.808Z,1.95
2022-09-02T16:06:26.337Z,2.05
2022-09-02T16:08:55.471Z,1.95
2022-09-02T16:11:23.780Z,1.27
2022-09-02T16:13:52.033Z,1.20
2022-09-02T16:16:20.227Z,3.92
2022-09-02T16:18:52.203Z,3.17
2022-09-02T16:21:21.321Z,5.00
2022-09-02T16:23:49.608Z,1.45
2022-09-02T16:26:24.827Z,1.88
2022-09-02T16:28:53.979Z,2.58
2022-09-02T16:31:24.290Z,10.00
2022-09-02T16:33:56.871Z,22.50
2022-09-02T16:36:26.800Z,8.25
2022-09-02T16:39:01.674Z,9.27
2022-09-02T16:41:34.639Z,46.80
2022-09-02T16:44:05.557Z,44.50
2022-09-02T16:46:34.940Z,67.30
2022-09-02T16:49:02.725Z,73.43
2022-09-02T16:51:31.048Z,30.67
2022-09-02T16:54:00.737Z,6.40
2022-09-02T16:56:30.590Z,5.53
2022-09-02T16:59:01.993Z,48.78
2022-09-02T17:01:32.489Z,154.02
2022-09-02T17:04:01.255Z,166.98
2022-09-02T17:06:29.961Z,199.45
2022-09-02T17:08:58.090Z,73.15
2022-09-02T17:11:27.857Z,227.98
2022-09-02T17:13:58.964Z,146.20
2022-09-02T17:16:28.654Z,45.93
2022-09-02T17:18:56.949Z,90.57
2022-09-02T17:21:28.359Z,27.73
2022-09-02T17:23:56.720Z,21.65
2022-09-02T17:26:26.884Z,58.65
2022-09-02T17:28:57.657Z,241.80
2022-09-02T17:31:27.417Z,98.60
2022-09-02T17:33:56.957Z,45.22
2022-09-02T17:36:25.971Z,29.20
2022-09-02T17:38:57.901Z,11.98
2022-09-02T17:41:43.823Z,4.63
2022-09-02T17:44:14.264Z,5.38
2022-09-02T17:46:42.873Z,4.22
2022-09-02T17:49:17.197Z,2.67
2022-09-02T17:51:46.478Z,4.53
2022-09-02T17:54:14.974Z,2.65
2022-09-02T17:56:59.414Z,1.83
2022-09-02T17:59:39.064Z,1.63
2022-09-02T18:02:30.393Z,4.78
2022-09-02T18:05:04.482Z,1.90
2022-09-02T18:07:41.770Z,2.90
2022-09-02T18:10:11.799Z,2.45
2022-09-02T18:12:39.923Z,2.00
2022-09-02T18:15:12.682Z,4.90
2022-09-02T18:17:47.179Z,2.67
2022-09-02T18:20:21.231Z,3.17
2022-09-02T18:23:12.731Z,2.38
2022-09-02T18:25:52.952Z,2.63
2022-09-02T18:28:29.672Z,2.50
2022-09-02T18:31:13.202Z,5.75
2022-09-02T18:34:04.006Z,3.65
2022-09-02T18:36:40.111Z,1.45
2022-09-02T18:39:21.449Z,2.85
2022-09-02T18:42:00.857Z,4.47
2022-09-02T18:44:39.864Z,3.25
2022-09-02T18:47:14.330Z,2.70
2022-09-02T18:49:44.192Z,1.60
2022-09-02T18:52:13.145Z,1.38
2022-09-02T18:54:47.121Z,2.33
2022-09-02T18:57:15.602Z,2.58
2022-09-02T18:59:50.708Z,2.70
2022-09-02T19:02:29.371Z,4.80
2022-09-02T19:04:59.214Z,1.52
2022-09-02T19:07:52.820Z,2.35
2022-09-02T19:10:20.812Z,2.47
2022-09-02T19:12:48.635Z,1.65
2022-09-02T19:15:17.355Z,3.05
2022-09-02T19:17:46.646Z,3.85
2022-09-02T19:20:14.461Z,4.18
2022-09-02T19:22:45.508Z,5.72
2022-09-02T19:25:16.418Z,6.93
2022-09-02T19:27:46.352Z,3.67
2022-09-02T19:30:18.630Z,2.13
2022-09-02T19:32:50.922Z,4.80
2022-09-02T19:37:51.310Z,1.48
2022-09-02T19:42:48.509Z,1.73
2022-09-02T19:45:16.915Z,2.28
2022-09-02T19:48:06.022Z,1.45
2022-09-02T19:50:34.509Z,3.05
2022-09-02T19:53:02.726Z,1.33
2022-09-02T19:55:33.538Z,2.00
2022-09-02T19:58:01.365Z,3.08
2022-09-02T20:00:29.242Z,2.78
2022-09-02T20:02:57.248Z,4.97
2022-09-02T20:05:25.922Z,1.50
2022-09-02T20:07:56.530Z,5.72
2022-09-02T20:10:29.852Z,1.60
2022-09-02T20:12:58.752Z,3.53
2022-09-02T20:15:26.590Z,2.75
2022-09-02T20:17:59.352Z,2.63
2022-09-02T20:20:28.694Z,3.08
2022-09-02T20:22:57.861Z,1.52
2022-09-02T20:25:35.620Z,2.53
2022-09-02T20:28:13.877Z,2.78
2022-09-02T20:30:48.921Z,2.00
2022-09-02T20:33:19.466Z,1.48
2022-09-02T20:36:08.512Z,1.92
2022-09-02T20:39:05.590Z,1.30
2022-09-02T20:41:44.699Z,2.33
2022-09-02T20:44:23.646Z,2.50
2022-09-02T20:47:06.753Z,2.15
2022-09-02T20:49:54.180Z,3.42
2022-09-02T20:52:31.393Z,1.40
2022-09-02T20:55:07.889Z,1.38
2022-09-02T20:57:51.696Z,1.52
2022-09-02T21:00:20.925Z,1.65
2022-09-02T21:02:55.676Z,1.55
2022-09-02T21:05:28.614Z,1.77
2022-09-02T21:08:02.816Z,1.95
2022-09-02T21:10:35.600Z,2.90
2022-09-02T21:13:09.873Z,2.55
2022-09-02T21:15:45.775Z,1.98
2022-09-02T21:18:19.563Z,2.75
2022-09-02T21:20:51.038Z,2.85
2022-09-02T21:23:23.029Z,4.83
2022-09-02T21:25:56.720Z,1.98
2022-09-02T21:28:33.269Z,1.70
2022-09-02T21:31:06.157Z,2.13
2022-09-02T21:33:36.096Z,5.20
2022-09-02T21:36:06.128Z,2.30
2022-09-02T21:38:39.412Z,3.50
2022-09-02T21:41:29.698Z,2.95
2022-09-02T21:44:06.162Z,3.63
2022-09-02T21:46:42.668Z,3.05
2022-09-02T21:49:18.896Z,2.45
2022-09-02T21:51:55.192Z,1.92
2022-09-02T21:54:37.460Z,3.42
2022-09-02T21:57:37.529Z,2.53
2022-09-02T22:00:08.193Z,2.40
2022-09-02T22:02:51.298Z,1.60
2022-09-02T22:05:35.501Z,3.70
2022-09-02T22:08:09.653Z,2.92
2022-09-02T22:10:44.649Z,2.17
2022-09-02T22:13:14.335Z,4.05
2022-09-02T22:15:58.084Z,2.72
2022-09-02T22:18:37.596Z,2.40
2022-09-02T22:21:13.105Z,2.08
2022-09-02T22:23:41.182Z,2.35
2022-09-02T22:26:31.214Z,3.45
2022-09-02T22:29:04.276Z,2.30
2022-09-02T22:31:36.094Z,2.08
2022-09-02T22:34:07.631Z,1.70
2022-09-02T22:36:43.106Z,5.60
2022-09-02T22:39:16.231Z,1.90
2022-09-02T22:42:02.543Z,2.60
2022-09-02T22:44:55.728Z,3.88
2022-09-02T22:47:43.024Z,5.03
2022-09-02T22:50:34.469Z,3.42
2022-09-02T22:53:02.283Z,3.63
2022-09-02T22:55:47.347Z,3.60
2022-09-02T22:58:38.691Z,1.95
2022-09-02T23:01:17.469Z,3.22
2022-09-02T23:03:58.465Z,7.05
2022-09-02T23:06:28.013Z,3.20
2022-09-02T23:08:56.627Z,2.80
2022-09-02T23:11:32.104Z,2.90
2022-09-02T23:14:11.877Z,2.08
2022-09-02T23:17:03.654Z,1.90
2022-09-02T23:19:44.267Z,3.40
2022-09-02T23:22:19.527Z,1.90
2022-09-02T23:24:56.116Z,2.30
2022-09-02T23:27:34.178Z,2.50
2022-09-02T23:30:02.414Z,3.72
2022-09-02T23:32:46.973Z,2.60
2022-09-02T23:35:21.204Z,2.15
2022-09-02T23:38:02.509Z,1.98
2022-09-02T23:40:37.786Z,3.92
2022-09-02T23:43:05.595Z,2.13
2022-09-02T23:45:35.825Z,2.00
2022-09-02T23:48:26.080Z,3.72
2022-09-02T23:51:13.128Z,3.53
2022-09-02T23:53:56.907Z,1.77
2022-09-02T23:56:35.047Z,2.63
2022-09-02T23:59:20.217Z,4.00
